sensor_id;sensor_type;location;lat;lon;timestamp;P1;durP1;ratioP1;P2;durP2;ratioP2
50821;SDS011;36794;51.212;6.980;2022-07-09T00:02:05;5.82;;;2.00;;
50821;SDS011;36794;51.212;6.980;2022-07-09T00:04:33;7.00;;;2.45;;
50821;SDS011;36794;51.212;6.980;2022-07-09T00:07:01;7.03;;;2.35;;
50821;SDS011;36794;51.212;6.980;2022-07-09T00:09:26;5.83;;;2.20;;
50821;SDS011;36794;51.212;6.980;2022-07-09T00:11:52;6.38;;;2.10;;
50821;SDS011;36794;51.212;6.980;2022-07-09T00:14:18;3.47;;;1.90;;
50821;SDS011;36794;51.212;6.980;2022-07-09T00:16:44;3.27;;;1.93;;
50821;SDS011;36794;51.212;6.980;2022-07-09T00:19:12;3.60;;;2.00;;
50821;SDS011;36794;51.212;6.980;2022-07-09T00:21:37;5.90;;;2.20;;
50821;SDS011;36794;51.212;6.980;2022-07-09T00:24:03;4.30;;;2.17;;
50821;SDS011;36794;51.212;6.980;2022-07-09T00:26:29;4.53;;;1.90;;
50821;SDS011;36794;51.212;6.980;2022-07-09T00:28:57;8.67;;;2.53;;
50821;SDS011;36794;51.212;6.980;2022-07-09T00:31:25;6.37;;;1.90;;
50821;SDS011;36794;51.212;6.980;2022-07-09T00:33:50;4.83;;;2.00;;
50821;SDS011;36794;51.212;6.980;2022-07-09T00:36:16;4.27;;;2.10;;
50821;SDS011;36794;51.212;6.980;2022-07-09T00:38:42;5.57;;;2.23;;
50821;SDS011;36794;51.212;6.980;2022-07-09T00:41:07;5.27;;;2.40;;
50821;SDS011;36794;51.212;6.980;2022-07-09T00:43:33;4.17;;;1.83;;
50821;SDS011;36794;51.212;6.980;2022-07-09T00:45:58;3.38;;;2.15;;
50821;SDS011;36794;51.212;6.980;2022-07-09T00:48:24;8.50;;;2.70;;
50821;SDS011;36794;51.212;6.980;2022-07-09T00:50:50;5.97;;;2.10;;
50821;SDS011;36794;51.212;6.980;2022-07-09T00:53:16;3.23;;;2.10;;
50821;SDS011;36794;51.212;6.980;2022-07-09T00:55:44;5.23;;;2.33;;
50821;SDS011;36794;51.212;6.980;2022-07-09T00:58:15;4.20;;;2.23;;
50821;SDS011;36794;51.212;6.980;2022-07-09T01:00:42;4.57;;;2.40;;
50821;SDS011;36794;51.212;6.980;2022-07-09T01:03:11;4.77;;;2.50;;
50821;SDS011;36794;51.212;6.980;2022-07-09T01:05:39;6.17;;;2.47;;
50821;SDS011;36794;51.212;6.980;2022-07-09T01:08:05;5.17;;;2.70;;
50821;SDS011;36794;51.212;6.980;2022-07-09T01:10:33;4.47;;;1.97;;
50821;SDS011;36794;51.212;6.980;2022-07-09T01:13:00;6.87;;;2.20;;
50821;SDS011;36794;51.212;6.980;2022-07-09T01:15:29;6.67;;;2.63;;
50821;SDS011;36794;51.212;6.980;2022-07-09T01:17:54;6.07;;;2.20;;
50821;SDS011;36794;51.212;6.980;2022-07-09T01:20:22;4.23;;;2.30;;
50821;SDS011;36794;51.212;6.980;2022-07-09T01:22:51;4.50;;;2.43;;
50821;SDS011;36794;51.212;6.980;2022-07-09T01:25:17;8.83;;;2.40;;
50821;SDS011;36794;51.212;6.980;2022-07-09T01:27:46;6.77;;;2.60;;
50821;SDS011;36794;51.212;6.980;2022-07-09T01:30:23;4.67;;;2.33;;
50821;SDS011;36794;51.212;6.980;2022-07-09T01:32:50;5.03;;;2.43;;
50821;SDS011;36794;51.212;6.980;2022-07-09T01:35:15;7.80;;;2.43;;
50821;SDS011;36794;51.212;6.980;2022-07-09T01:37:41;4.03;;;2.10;;
50821;SDS011;36794;51.212;6.980;2022-07-09T01:40:09;5.73;;;2.30;;
50821;SDS011;36794;51.212;6.980;2022-07-09T01:42:37;7.80;;;2.37;;
50821;SDS011;36794;51.212;6.980;2022-07-09T01:45:03;4.10;;;2.07;;
50821;SDS011;36794;51.212;6.980;2022-07-09T01:47:29;8.33;;;2.60;;
50821;SDS011;36794;51.212;6.980;2022-07-09T01:49:55;6.63;;;2.83;;
50821;SDS011;36794;51.212;6.980;2022-07-09T01:52:20;7.03;;;2.33;;
50821;SDS011;36794;51.212;6.980;2022-07-09T01:54:48;8.47;;;2.70;;
50821;SDS011;36794;51.212;6.980;2022-07-09T01:57:14;6.17;;;2.40;;
50821;SDS011;36794;51.212;6.980;2022-07-09T01:59:39;6.07;;;2.47;;
50821;SDS011;36794;51.212;6.980;2022-07-09T02:02:05;2.63;;;2.30;;
50821;SDS011;36794;51.212;6.980;2022-07-09T02:04:30;8.27;;;2.77;;
50821;SDS011;36794;51.212;6.980;2022-07-09T02:06:56;11.03;;;2.87;;
50821;SDS011;36794;51.212;6.980;2022-07-09T02:09:22;8.33;;;2.53;;
50821;SDS011;36794;51.212;6.980;2022-07-09T02:11:47;4.63;;;2.30;;
50821;SDS011;36794;51.212;6.980;2022-07-09T02:14:14;6.37;;;2.17;;
50821;SDS011;36794;51.212;6.980;2022-07-09T02:16:43;5.37;;;2.60;;
50821;SDS011;36794;51.212;6.980;2022-07-09T02:19:09;10.37;;;2.63;;
50821;SDS011;36794;51.212;6.980;2022-07-09T02:21:35;10.90;;;2.97;;
50821;SDS011;36794;51.212;6.980;2022-07-09T02:24:01;7.60;;;2.40;;
50821;SDS011;36794;51.212;6.980;2022-07-09T02:26:27;4.47;;;2.63;;
50821;SDS011;36794;51.212;6.980;2022-07-09T02:28:57;6.80;;;2.53;;
50821;SDS011;36794;51.212;6.980;2022-07-09T02:31:26;6.33;;;3.07;;
50821;SDS011;36794;51.212;6.980;2022-07-09T02:33:53;7.50;;;2.70;;
50821;SDS011;36794;51.212;6.980;2022-07-09T02:36:19;6.03;;;3.07;;
50821;SDS011;36794;51.212;6.980;2022-07-09T02:38:45;5.40;;;2.67;;
50821;SDS011;36794;51.212;6.980;2022-07-09T02:41:13;6.70;;;2.57;;
50821;SDS011;36794;51.212;6.980;2022-07-09T02:43:39;6.03;;;2.53;;
50821;SDS011;36794;51.212;6.980;2022-07-09T02:46:08;9.63;;;2.53;;
50821;SDS011;36794;51.212;6.980;2022-07-09T02:48:37;4.27;;;2.63;;
50821;SDS011;36794;51.212;6.980;2022-07-09T02:51:09;5.83;;;2.47;;
50821;SDS011;36794;51.212;6.980;2022-07-09T02:53:35;3.27;;;2.40;;
50821;SDS011;36794;51.212;6.980;2022-07-09T02:56:01;7.53;;;2.30;;
50821;SDS011;36794;51.212;6.980;2022-07-09T02:58:27;5.33;;;2.40;;
50821;SDS011;36794;51.212;6.980;2022-07-09T03:00:56;6.90;;;2.77;;
50821;SDS011;36794;51.212;6.980;2022-07-09T03:03:22;6.57;;;2.40;;
50821;SDS011;36794;51.212;6.980;2022-07-09T03:05:51;5.57;;;2.40;;
50821;SDS011;36794;51.212;6.980;2022-07-09T03:08:17;6.43;;;2.73;;
50821;SDS011;36794;51.212;6.980;2022-07-09T03:10:46;4.83;;;2.90;;
50821;SDS011;36794;51.212;6.980;2022-07-09T03:13:12;8.73;;;2.83;;
50821;SDS011;36794;51.212;6.980;2022-07-09T03:15:38;5.10;;;2.90;;
50821;SDS011;36794;51.212;6.980;2022-07-09T03:18:04;6.07;;;2.80;;
50821;SDS011;36794;51.212;6.980;2022-07-09T03:20:33;4.80;;;2.60;;
50821;SDS011;36794;51.212;6.980;2022-07-09T03:22:59;10.70;;;3.17;;
50821;SDS011;36794;51.212;6.980;2022-07-09T03:25:25;6.13;;;2.93;;
50821;SDS011;36794;51.212;6.980;2022-07-09T03:27:51;9.63;;;2.80;;
50821;SDS011;36794;51.212;6.980;2022-07-09T03:30:19;5.73;;;2.80;;
50821;SDS011;36794;51.212;6.980;2022-07-09T03:32:45;5.63;;;2.57;;
50821;SDS011;36794;51.212;6.980;2022-07-09T03:35:11;8.37;;;2.80;;
50821;SDS011;36794;51.212;6.980;2022-07-09T03:37:37;6.80;;;3.27;;
50821;SDS011;36794;51.212;6.980;2022-07-09T03:40:03;8.17;;;2.80;;
50821;SDS011;36794;51.212;6.980;2022-07-09T03:42:29;8.90;;;3.00;;
50821;SDS011;36794;51.212;6.980;2022-07-09T03:44:55;8.47;;;2.90;;
50821;SDS011;36794;51.212;6.980;2022-07-09T03:47:21;7.43;;;3.10;;
50821;SDS011;36794;51.212;6.980;2022-07-09T03:49:48;8.77;;;2.60;;
50821;SDS011;36794;51.212;6.980;2022-07-09T03:52:14;5.77;;;2.87;;
50821;SDS011;36794;51.212;6.980;2022-07-09T03:54:45;6.47;;;3.17;;
50821;SDS011;36794;51.212;6.980;2022-07-09T03:57:11;8.00;;;2.80;;
50821;SDS011;36794;51.212;6.980;2022-07-09T03:59:42;9.13;;;2.50;;
50821;SDS011;36794;51.212;6.980;2022-07-09T04:02:11;7.80;;;3.17;;
50821;SDS011;36794;51.212;6.980;2022-07-09T04:04:37;9.13;;;3.00;;
50821;SDS011;36794;51.212;6.980;2022-07-09T04:07:03;8.23;;;2.90;;
50821;SDS011;36794;51.212;6.980;2022-07-09T04:09:29;7.70;;;2.97;;
50821;SDS011;36794;51.212;6.980;2022-07-09T04:11:55;8.73;;;2.77;;
50821;SDS011;36794;51.212;6.980;2022-07-09T04:14:21;12.60;;;3.77;;
50821;SDS011;36794;51.212;6.980;2022-07-09T04:16:47;8.53;;;3.10;;
50821;SDS011;36794;51.212;6.980;2022-07-09T04:19:13;10.83;;;3.37;;
50821;SDS011;36794;51.212;6.980;2022-07-09T04:21:39;6.63;;;3.37;;
50821;SDS011;36794;51.212;6.980;2022-07-09T04:24:05;9.87;;;4.23;;
50821;SDS011;36794;51.212;6.980;2022-07-09T04:26:31;9.23;;;3.53;;
50821;SDS011;36794;51.212;6.980;2022-07-09T04:28:57;6.43;;;4.23;;
50821;SDS011;36794;51.212;6.980;2022-07-09T04:31:26;10.83;;;3.70;;
50821;SDS011;36794;51.212;6.980;2022-07-09T04:33:51;8.47;;;3.67;;
50821;SDS011;36794;51.212;6.980;2022-07-09T04:36:17;6.50;;;3.40;;
50821;SDS011;36794;51.212;6.980;2022-07-09T04:38:43;8.53;;;3.63;;
50821;SDS011;36794;51.212;6.980;2022-07-09T04:41:09;4.73;;;4.00;;
50821;SDS011;36794;51.212;6.980;2022-07-09T04:43:35;10.70;;;3.33;;
50821;SDS011;36794;51.212;6.980;2022-07-09T04:46:01;9.77;;;4.37;;
50821;SDS011;36794;51.212;6.980;2022-07-09T04:48:27;10.20;;;3.80;;
50821;SDS011;36794;51.212;6.980;2022-07-09T04:50:53;9.13;;;3.37;;
50821;SDS011;36794;51.212;6.980;2022-07-09T04:53:19;9.77;;;3.43;;
50821;SDS011;36794;51.212;6.980;2022-07-09T04:55:45;7.18;;;3.55;;
50821;SDS011;36794;51.212;6.980;2022-07-09T04:58:14;7.70;;;4.40;;
50821;SDS011;36794;51.212;6.980;2022-07-09T05:00:40;11.25;;;4.28;;
50821;SDS011;36794;51.212;6.980;2022-07-09T05:03:06;8.32;;;3.72;;
50821;SDS011;36794;51.212;6.980;2022-07-09T05:05:32;6.93;;;4.05;;
50821;SDS011;36794;51.212;6.980;2022-07-09T05:07:58;7.60;;;3.50;;
50821;SDS011;36794;51.212;6.980;2022-07-09T05:10:24;8.68;;;3.58;;
50821;SDS011;36794;51.212;6.980;2022-07-09T05:12:50;6.35;;;3.85;;
50821;SDS011;36794;51.212;6.980;2022-07-09T05:15:16;8.43;;;4.13;;
50821;SDS011;36794;51.212;6.980;2022-07-09T05:17:42;11.10;;;4.68;;
50821;SDS011;36794;51.212;6.980;2022-07-09T05:20:09;9.88;;;6.47;;
50821;SDS011;36794;51.212;6.980;2022-07-09T05:22:36;11.20;;;7.15;;
50821;SDS011;36794;51.212;6.980;2022-07-09T05:25:02;18.80;;;10.68;;
50821;SDS011;36794;51.212;6.980;2022-07-09T05:27:29;19.58;;;11.63;;
50821;SDS011;36794;51.212;6.980;2022-07-09T05:29:56;16.75;;;10.95;;
50821;SDS011;36794;51.212;6.980;2022-07-09T05:32:22;19.65;;;11.60;;
50821;SDS011;36794;51.212;6.980;2022-07-09T05:34:48;14.43;;;9.95;;
50821;SDS011;36794;51.212;6.980;2022-07-09T05:37:14;15.93;;;9.10;;
50821;SDS011;36794;51.212;6.980;2022-07-09T05:39:40;17.45;;;8.60;;
50821;SDS011;36794;51.212;6.980;2022-07-09T05:42:06;16.40;;;9.02;;
50821;SDS011;36794;51.212;6.980;2022-07-09T05:44:32;21.80;;;8.82;;
50821;SDS011;36794;51.212;6.980;2022-07-09T05:46:58;15.50;;;9.63;;
50821;SDS011;36794;51.212;6.980;2022-07-09T05:49:26;15.05;;;9.68;;
50821;SDS011;36794;51.212;6.980;2022-07-09T05:51:53;15.40;;;9.65;;
50821;SDS011;36794;51.212;6.980;2022-07-09T05:54:19;17.80;;;11.10;;
50821;SDS011;36794;51.212;6.980;2022-07-09T05:56:45;18.27;;;13.73;;
50821;SDS011;36794;51.212;6.980;2022-07-09T05:59:11;23.00;;;14.68;;
50821;SDS011;36794;51.212;6.980;2022-07-09T06:01:37;16.45;;;13.77;;
50821;SDS011;36794;51.212;6.980;2022-07-09T06:04:07;19.60;;;13.88;;
50821;SDS011;36794;51.212;6.980;2022-07-09T06:06:33;18.13;;;13.43;;
50821;SDS011;36794;51.212;6.980;2022-07-09T06:08:59;24.55;;;14.65;;
50821;SDS011;36794;51.212;6.980;2022-07-09T06:11:26;24.50;;;15.52;;
50821;SDS011;36794;51.212;6.980;2022-07-09T06:13:52;21.05;;;14.20;;
50821;SDS011;36794;51.212;6.980;2022-07-09T06:16:18;21.48;;;13.65;;
50821;SDS011;36794;51.212;6.980;2022-07-09T06:18:44;24.02;;;15.10;;
50821;SDS011;36794;51.212;6.980;2022-07-09T06:21:10;25.55;;;15.55;;
50821;SDS011;36794;51.212;6.980;2022-07-09T06:23:36;18.35;;;13.88;;
50821;SDS011;36794;51.212;6.980;2022-07-09T06:26:01;22.45;;;14.65;;
50821;SDS011;36794;51.212;6.980;2022-07-09T06:28:27;17.60;;;12.48;;
50821;SDS011;36794;51.212;6.980;2022-07-09T06:30:53;30.52;;;12.90;;
50821;SDS011;36794;51.212;6.980;2022-07-09T06:33:19;20.63;;;12.93;;
50821;SDS011;36794;51.212;6.980;2022-07-09T06:35:45;21.50;;;13.55;;
50821;SDS011;36794;51.212;6.980;2022-07-09T06:38:11;21.67;;;13.38;;
50821;SDS011;36794;51.212;6.980;2022-07-09T06:40:37;19.45;;;12.85;;
50821;SDS011;36794;51.212;6.980;2022-07-09T06:43:03;18.73;;;12.40;;
50821;SDS011;36794;51.212;6.980;2022-07-09T06:45:29;21.67;;;14.10;;
50821;SDS011;36794;51.212;6.980;2022-07-09T06:47:55;17.38;;;12.63;;
50821;SDS011;36794;51.212;6.980;2022-07-09T06:50:23;17.27;;;11.35;;
50821;SDS011;36794;51.212;6.980;2022-07-09T06:52:49;21.55;;;13.50;;
50821;SDS011;36794;51.212;6.980;2022-07-09T06:55:15;16.23;;;11.25;;
50821;SDS011;36794;51.212;6.980;2022-07-09T06:57:41;17.35;;;11.18;;
50821;SDS011;36794;51.212;6.980;2022-07-09T07:00:10;18.70;;;10.55;;
50821;SDS011;36794;51.212;6.980;2022-07-09T07:02:38;19.13;;;12.27;;
50821;SDS011;36794;51.212;6.980;2022-07-09T07:05:04;18.33;;;8.40;;
50821;SDS011;36794;51.212;6.980;2022-07-09T07:07:33;13.70;;;9.20;;
50821;SDS011;36794;51.212;6.980;2022-07-09T07:09:59;16.85;;;9.93;;
50821;SDS011;36794;51.212;6.980;2022-07-09T07:12:25;18.27;;;10.30;;
50821;SDS011;36794;51.212;6.980;2022-07-09T07:14:51;13.90;;;8.48;;
50821;SDS011;36794;51.212;6.980;2022-07-09T07:17:17;19.73;;;8.45;;
50821;SDS011;36794;51.212;6.980;2022-07-09T07:19:46;17.08;;;9.63;;
50821;SDS011;36794;51.212;6.980;2022-07-09T07:22:12;16.05;;;9.32;;
50821;SDS011;36794;51.212;6.980;2022-07-09T07:24:38;19.35;;;9.70;;
50821;SDS011;36794;51.212;6.980;2022-07-09T07:27:06;18.05;;;8.48;;
50821;SDS011;36794;51.212;6.980;2022-07-09T07:29:32;16.50;;;7.78;;
50821;SDS011;36794;51.212;6.980;2022-07-09T07:31:58;16.80;;;7.55;;
50821;SDS011;36794;51.212;6.980;2022-07-09T07:34:24;14.98;;;6.97;;
50821;SDS011;36794;51.212;6.980;2022-07-09T07:36:50;14.75;;;6.97;;
50821;SDS011;36794;51.212;6.980;2022-07-09T07:39:17;18.58;;;7.50;;
50821;SDS011;36794;51.212;6.980;2022-07-09T07:41:44;13.77;;;7.13;;
50821;SDS011;36794;51.212;6.980;2022-07-09T07:44:10;15.75;;;7.28;;
50821;SDS011;36794;51.212;6.980;2022-07-09T07:46:36;18.00;;;7.93;;
50821;SDS011;36794;51.212;6.980;2022-07-09T07:49:02;12.02;;;7.13;;
50821;SDS011;36794;51.212;6.980;2022-07-09T07:51:27;16.83;;;6.65;;
50821;SDS011;36794;51.212;6.980;2022-07-09T07:53:53;15.35;;;6.88;;
50821;SDS011;36794;51.212;6.980;2022-07-09T07:56:19;12.60;;;7.28;;
50821;SDS011;36794;51.212;6.980;2022-07-09T07:58:45;16.35;;;8.20;;
50821;SDS011;36794;51.212;6.980;2022-07-09T08:01:11;18.85;;;7.45;;
50821;SDS011;36794;51.212;6.980;2022-07-09T08:03:40;12.10;;;6.60;;
50821;SDS011;36794;51.212;6.980;2022-07-09T08:06:05;14.85;;;7.15;;
50821;SDS011;36794;51.212;6.980;2022-07-09T08:08:32;12.73;;;6.53;;
50821;SDS011;36794;51.212;6.980;2022-07-09T08:11:05;14.65;;;6.00;;
50821;SDS011;36794;51.212;6.980;2022-07-09T08:13:31;12.70;;;5.75;;
50821;SDS011;36794;51.212;6.980;2022-07-09T08:15:57;16.95;;;5.82;;
50821;SDS011;36794;51.212;6.980;2022-07-09T08:18:25;10.65;;;5.82;;
50821;SDS011;36794;51.212;6.980;2022-07-09T08:20:51;11.88;;;5.10;;
50821;SDS011;36794;51.212;6.980;2022-07-09T08:23:17;9.23;;;5.03;;
50821;SDS011;36794;51.212;6.980;2022-07-09T08:25:43;11.63;;;4.13;;
50821;SDS011;36794;51.212;6.980;2022-07-09T08:28:09;8.38;;;3.42;;
50821;SDS011;36794;51.212;6.980;2022-07-09T08:30:35;10.07;;;3.95;;
50821;SDS011;36794;51.212;6.980;2022-07-09T08:33:02;6.47;;;3.85;;
50821;SDS011;36794;51.212;6.980;2022-07-09T08:35:28;6.70;;;3.50;;
50821;SDS011;36794;51.212;6.980;2022-07-09T08:37:54;6.95;;;3.25;;
50821;SDS011;36794;51.212;6.980;2022-07-09T08:40:22;9.55;;;3.40;;
50821;SDS011;36794;51.212;6.980;2022-07-09T08:42:50;10.32;;;3.80;;
50821;SDS011;36794;51.212;6.980;2022-07-09T08:45:18;10.15;;;3.67;;
50821;SDS011;36794;51.212;6.980;2022-07-09T08:47:45;6.63;;;2.72;;
50821;SDS011;36794;51.212;6.980;2022-07-09T08:50:12;6.35;;;2.50;;
50821;SDS011;36794;51.212;6.980;2022-07-09T08:52:38;8.77;;;2.83;;
50821;SDS011;36794;51.212;6.980;2022-07-09T08:55:05;7.25;;;2.83;;
50821;SDS011;36794;51.212;6.980;2022-07-09T08:57:38;7.72;;;3.25;;
50821;SDS011;36794;51.212;6.980;2022-07-09T09:00:07;6.20;;;2.95;;
50821;SDS011;36794;51.212;6.980;2022-07-09T09:02:33;8.95;;;3.20;;
50821;SDS011;36794;51.212;6.980;2022-07-09T09:05:05;6.53;;;2.53;;
50821;SDS011;36794;51.212;6.980;2022-07-09T09:07:31;5.47;;;2.90;;
50821;SDS011;36794;51.212;6.980;2022-07-09T09:09:56;6.85;;;2.75;;
50821;SDS011;36794;51.212;6.980;2022-07-09T09:12:27;8.30;;;4.03;;
50821;SDS011;36794;51.212;6.980;2022-07-09T09:14:53;8.30;;;3.50;;
50821;SDS011;36794;51.212;6.980;2022-07-09T09:17:19;7.13;;;2.97;;
50821;SDS011;36794;51.212;6.980;2022-07-09T09:19:45;6.50;;;2.80;;
50821;SDS011;36794;51.212;6.980;2022-07-09T09:22:16;5.72;;;2.40;;
50821;SDS011;36794;51.212;6.980;2022-07-09T09:24:42;7.25;;;2.10;;
50821;SDS011;36794;51.212;6.980;2022-07-09T09:27:08;4.57;;;1.90;;
50821;SDS011;36794;51.212;6.980;2022-07-09T09:29:34;4.10;;;1.67;;
50821;SDS011;36794;51.212;6.980;2022-07-09T09:32:10;4.97;;;2.00;;
50821;SDS011;36794;51.212;6.980;2022-07-09T09:34:39;4.78;;;1.83;;
50821;SDS011;36794;51.212;6.980;2022-07-09T09:37:06;6.18;;;2.38;;
50821;SDS011;36794;51.212;6.980;2022-07-09T09:39:33;4.95;;;1.67;;
50821;SDS011;36794;51.212;6.980;2022-07-09T09:42:03;4.40;;;1.85;;
50821;SDS011;36794;51.212;6.980;2022-07-09T09:44:30;4.47;;;1.58;;
50821;SDS011;36794;51.212;6.980;2022-07-09T09:47:02;3.10;;;1.38;;
50821;SDS011;36794;51.212;6.980;2022-07-09T09:49:28;4.80;;;0.95;;
50821;SDS011;36794;51.212;6.980;2022-07-09T09:52:04;5.80;;;1.17;;
50821;SDS011;36794;51.212;6.980;2022-07-09T09:54:31;2.20;;;0.98;;
50821;SDS011;36794;51.212;6.980;2022-07-09T09:56:58;4.63;;;0.90;;
50821;SDS011;36794;51.212;6.980;2022-07-09T09:59:24;2.83;;;1.00;;
50821;SDS011;36794;51.212;6.980;2022-07-09T10:01:53;1.38;;;0.70;;
50821;SDS011;36794;51.212;6.980;2022-07-09T10:04:19;1.60;;;0.50;;
50821;SDS011;36794;51.212;6.980;2022-07-09T10:06:46;2.35;;;0.55;;
50821;SDS011;36794;51.212;6.980;2022-07-09T10:09:15;2.10;;;0.35;;
50821;SDS011;36794;51.212;6.980;2022-07-09T10:11:42;1.00;;;0.32;;
50821;SDS011;36794;51.212;6.980;2022-07-09T10:16:45;0.98;;;0.38;;
50821;SDS011;36794;51.212;6.980;2022-07-09T10:19:20;3.30;;;0.50;;
50821;SDS011;36794;51.212;6.980;2022-07-09T10:21:50;0.85;;;0.30;;
50821;SDS011;36794;51.212;6.980;2022-07-09T10:24:37;1.95;;;0.50;;
50821;SDS011;36794;51.212;6.980;2022-07-09T10:27:09;1.53;;;0.50;;
50821;SDS011;36794;51.212;6.980;2022-07-09T10:29:36;1.80;;;0.65;;
50821;SDS011;36794;51.212;6.980;2022-07-09T10:32:02;3.83;;;0.45;;
50821;SDS011;36794;51.212;6.980;2022-07-09T10:34:43;0.70;;;0.40;;
50821;SDS011;36794;51.212;6.980;2022-07-09T10:37:10;2.78;;;0.40;;
50821;SDS011;36794;51.212;6.980;2022-07-09T10:39:36;1.25;;;0.55;;
50821;SDS011;36794;51.212;6.980;2022-07-09T10:42:06;2.65;;;0.50;;
50821;SDS011;36794;51.212;6.980;2022-07-09T10:44:39;40.47;;;1.65;;
50821;SDS011;36794;51.212;6.980;2022-07-09T10:47:05;18.42;;;0.93;;
50821;SDS011;36794;51.212;6.980;2022-07-09T10:49:33;4.15;;;0.70;;
50821;SDS011;36794;51.212;6.980;2022-07-09T10:51:59;6.90;;;0.75;;
50821;SDS011;36794;51.212;6.980;2022-07-09T10:54:25;17.80;;;1.63;;
50821;SDS011;36794;51.212;6.980;2022-07-09T10:56:54;6.32;;;0.70;;
50821;SDS011;36794;51.212;6.980;2022-07-09T10:59:21;2.97;;;0.50;;
50821;SDS011;36794;51.212;6.980;2022-07-09T11:01:47;1.25;;;0.50;;
50821;SDS011;36794;51.212;6.980;2022-07-09T11:04:25;3.63;;;0.70;;
50821;SDS011;36794;51.212;6.980;2022-07-09T11:06:51;4.88;;;0.63;;
50821;SDS011;36794;51.212;6.980;2022-07-09T11:09:17;3.00;;;0.52;;
50821;SDS011;36794;51.212;6.980;2022-07-09T11:11:43;1.45;;;0.50;;
50821;SDS011;36794;51.212;6.980;2022-07-09T11:14:09;1.83;;;0.60;;
50821;SDS011;36794;51.212;6.980;2022-07-09T11:16:38;2.13;;;0.50;;
50821;SDS011;36794;51.212;6.980;2022-07-09T11:19:14;3.58;;;0.70;;
50821;SDS011;36794;51.212;6.980;2022-07-09T11:21:46;2.22;;;0.50;;
50821;SDS011;36794;51.212;6.980;2022-07-09T11:24:17;1.52;;;0.45;;
50821;SDS011;36794;51.212;6.980;2022-07-09T11:26:44;2.45;;;0.55;;
50821;SDS011;36794;51.212;6.980;2022-07-09T11:29:13;1.00;;;0.40;;
50821;SDS011;36794;51.212;6.980;2022-07-09T11:31:49;1.48;;;0.50;;
50821;SDS011;36794;51.212;6.980;2022-07-09T11:34:16;1.38;;;0.57;;
50821;SDS011;36794;51.212;6.980;2022-07-09T11:36:43;1.75;;;0.52;;
50821;SDS011;36794;51.212;6.980;2022-07-09T11:39:09;0.80;;;0.50;;
50821;SDS011;36794;51.212;6.980;2022-07-09T11:41:44;2.58;;;0.70;;
50821;SDS011;36794;51.212;6.980;2022-07-09T11:44:11;3.50;;;0.60;;
50821;SDS011;36794;51.212;6.980;2022-07-09T11:46:44;1.98;;;0.55;;
50821;SDS011;36794;51.212;6.980;2022-07-09T11:49:14;2.88;;;0.50;;
50821;SDS011;36794;51.212;6.980;2022-07-09T11:51:40;1.80;;;0.60;;
50821;SDS011;36794;51.212;6.980;2022-07-09T11:54:06;1.75;;;0.50;;
50821;SDS011;36794;51.212;6.980;2022-07-09T11:56:39;1.40;;;0.73;;
50821;SDS011;36794;51.212;6.980;2022-07-09T11:59:05;2.15;;;0.68;;
50821;SDS011;36794;51.212;6.980;2022-07-09T12:01:31;4.57;;;0.75;;
50821;SDS011;36794;51.212;6.980;2022-07-09T12:03:57;1.52;;;0.68;;
50821;SDS011;36794;51.212;6.980;2022-07-09T12:06:23;4.53;;;1.05;;
50821;SDS011;36794;51.212;6.980;2022-07-09T12:08:57;1.80;;;0.80;;
50821;SDS011;36794;51.212;6.980;2022-07-09T12:11:27;2.30;;;0.77;;
50821;SDS011;36794;51.212;6.980;2022-07-09T12:13:56;1.35;;;0.70;;
50821;SDS011;36794;51.212;6.980;2022-07-09T12:16:22;1.70;;;0.70;;
50821;SDS011;36794;51.212;6.980;2022-07-09T12:18:49;5.30;;;0.90;;
50821;SDS011;36794;51.212;6.980;2022-07-09T12:21:15;1.58;;;0.88;;
50821;SDS011;36794;51.212;6.980;2022-07-09T12:23:41;2.78;;;0.95;;
50821;SDS011;36794;51.212;6.980;2022-07-09T12:26:06;2.20;;;0.90;;
50821;SDS011;36794;51.212;6.980;2022-07-09T12:28:32;2.25;;;0.85;;
50821;SDS011;36794;51.212;6.980;2022-07-09T12:30:58;3.38;;;1.17;;
50821;SDS011;36794;51.212;6.980;2022-07-09T12:33:24;1.20;;;0.85;;
50821;SDS011;36794;51.212;6.980;2022-07-09T12:35:50;3.40;;;1.10;;
50821;SDS011;36794;51.212;6.980;2022-07-09T12:38:16;3.20;;;1.17;;
50821;SDS011;36794;51.212;6.980;2022-07-09T12:40:42;6.30;;;1.20;;
50821;SDS011;36794;51.212;6.980;2022-07-09T12:43:08;3.33;;;1.20;;
50821;SDS011;36794;51.212;6.980;2022-07-09T12:45:34;2.38;;;1.10;;
50821;SDS011;36794;51.212;6.980;2022-07-09T12:48:00;5.30;;;1.85;;
50821;SDS011;36794;51.212;6.980;2022-07-09T12:50:28;4.65;;;1.55;;
50821;SDS011;36794;51.212;6.980;2022-07-09T12:52:54;4.50;;;1.35;;
50821;SDS011;36794;51.212;6.980;2022-07-09T12:55:20;3.90;;;1.60;;
50821;SDS011;36794;51.212;6.980;2022-07-09T12:57:46;5.53;;;1.23;;
50821;SDS011;36794;51.212;6.980;2022-07-09T13:00:12;4.57;;;1.70;;
50821;SDS011;36794;51.212;6.980;2022-07-09T13:02:39;2.65;;;1.45;;
50821;SDS011;36794;51.212;6.980;2022-07-09T13:05:05;4.70;;;1.25;;
50821;SDS011;36794;51.212;6.980;2022-07-09T13:07:31;4.28;;;1.75;;
50821;SDS011;36794;51.212;6.980;2022-07-09T13:09:57;5.00;;;1.92;;
50821;SDS011;36794;51.212;6.980;2022-07-09T13:12:25;3.65;;;1.80;;
50821;SDS011;36794;51.212;6.980;2022-07-09T13:14:51;3.95;;;1.88;;
50821;SDS011;36794;51.212;6.980;2022-07-09T13:17:17;4.13;;;1.58;;
50821;SDS011;36794;51.212;6.980;2022-07-09T13:19:43;5.28;;;2.40;;
50821;SDS011;36794;51.212;6.980;2022-07-09T13:22:09;10.32;;;3.35;;
50821;SDS011;36794;51.212;6.980;2022-07-09T13:24:35;8.48;;;3.35;;
50821;SDS011;36794;51.212;6.980;2022-07-09T13:27:01;5.00;;;2.75;;
50821;SDS011;36794;51.212;6.980;2022-07-09T13:29:32;5.32;;;2.45;;
50821;SDS011;36794;51.212;6.980;2022-07-09T13:32:01;6.43;;;3.50;;
50821;SDS011;36794;51.212;6.980;2022-07-09T13:34:27;7.55;;;3.42;;
50821;SDS011;36794;51.212;6.980;2022-07-09T13:36:53;5.35;;;3.92;;
50821;SDS011;36794;51.212;6.980;2022-07-09T13:39:19;8.30;;;4.25;;
50821;SDS011;36794;51.212;6.980;2022-07-09T13:41:45;8.18;;;4.68;;
50821;SDS011;36794;51.212;6.980;2022-07-09T13:44:11;9.45;;;5.53;;
50821;SDS011;36794;51.212;6.980;2022-07-09T13:46:37;6.82;;;5.50;;
50821;SDS011;36794;51.212;6.980;2022-07-09T13:49:03;9.45;;;6.10;;
50821;SDS011;36794;51.212;6.980;2022-07-09T13:51:29;7.30;;;5.40;;
50821;SDS011;36794;51.212;6.980;2022-07-09T13:53:55;9.57;;;5.60;;
50821;SDS011;36794;51.212;6.980;2022-07-09T13:56:21;6.63;;;4.45;;
50821;SDS011;36794;51.212;6.980;2022-07-09T13:58:47;6.30;;;4.13;;
50821;SDS011;36794;51.212;6.980;2022-07-09T14:01:13;5.47;;;3.78;;
50821;SDS011;36794;51.212;6.980;2022-07-09T14:03:39;8.15;;;3.72;;
50821;SDS011;36794;51.212;6.980;2022-07-09T14:06:06;6.35;;;3.60;;
50821;SDS011;36794;51.212;6.980;2022-07-09T14:08:32;4.30;;;2.58;;
50821;SDS011;36794;51.212;6.980;2022-07-09T14:10:58;5.88;;;2.20;;
50821;SDS011;36794;51.212;6.980;2022-07-09T14:13:25;7.60;;;2.42;;
50821;SDS011;36794;51.212;6.980;2022-07-09T14:15:52;4.68;;;2.45;;
50821;SDS011;36794;51.212;6.980;2022-07-09T14:18:18;4.72;;;2.33;;
50821;SDS011;36794;51.212;6.980;2022-07-09T14:20:44;4.50;;;2.40;;
50821;SDS011;36794;51.212;6.980;2022-07-09T14:23:10;4.43;;;2.53;;
50821;SDS011;36794;51.212;6.980;2022-07-09T14:25:36;9.43;;;2.75;;
50821;SDS011;36794;51.212;6.980;2022-07-09T14:28:04;6.63;;;2.75;;
50821;SDS011;36794;51.212;6.980;2022-07-09T14:30:33;6.22;;;2.92;;
50821;SDS011;36794;51.212;6.980;2022-07-09T14:32:59;5.63;;;3.03;;
50821;SDS011;36794;51.212;6.980;2022-07-09T14:35:26;6.63;;;3.08;;
50821;SDS011;36794;51.212;6.980;2022-07-09T14:37:52;4.65;;;2.85;;
50821;SDS011;36794;51.212;6.980;2022-07-09T14:40:18;4.65;;;2.67;;
50821;SDS011;36794;51.212;6.980;2022-07-09T14:42:44;6.18;;;2.92;;
50821;SDS011;36794;51.212;6.980;2022-07-09T14:45:10;4.90;;;2.50;;